Time;durP1;ratioP1;P1;durP2;ratioP2;P2;SDS_P1;SDS_P2;PMS_P1;PMS_P2;Temp;Humidity;BMP_temperature;BMP_pressure;BME280_temperature;BME280_humidity;BME280_pressure;Samples;Min_cycle;Max_cycle;Signal;HPM_P1;HPM_P2
2022/06/01 04:02:10;;;;;;;7.57;6.22;;;9.90;99.90;;;;;;5267330;22;20140;-72
2022/06/01 04:04:37;;;;;;;7.63;6.50;;;9.80;99.90;;;;;;5056755;28;20124;-72
2022/06/01 04:07:03;;;;;;;7.72;6.22;;;9.80;99.90;;;;;;5057426;28;20109;-72
2022/06/01 04:09:29;;;;;;;8.75;7.38;;;9.80;99.90;;;;;;5057279;28;20117;-72
2022/06/01 04:11:55;;;;;;;10.85;7.63;;;9.70;99.90;;;;;;5056927;28;20035;-72
2022/06/01 04:14:24;;;;;;;8.38;6.93;;;9.60;99.90;;;;;;5056225;28;20029;-71
2022/06/01 04:16:50;;;;;;;8.40;7.22;;;9.60;99.90;;;;;;5057173;28;20140;-75
2022/06/01 04:19:16;;;;;;;10.52;7.35;;;9.60;99.90;;;;;;5057067;28;20490;-74
2022/06/01 04:21:45;;;;;;;7.75;6.95;;;9.50;99.90;;;;;;5057195;28;20037;-73
2022/06/01 04:24:14;;;;;;;11.68;8.32;;;9.50;99.90;;;;;;5056773;28;20037;-73
2022/06/01 04:26:40;;;;;;;12.73;7.75;;;9.50;99.90;;;;;;5057422;28;20025;-74
2022/06/01 04:29:06;;;;;;;10.90;7.03;;;9.40;99.90;;;;;;5057221;28;20043;-73
2022/06/01 04:31:33;;;;;;;9.43;7.53;;;9.40;99.90;;;;;;5057997;28;20059;-73
2022/06/01 04:33:58;;;;;;;9.43;7.30;;;9.40;99.90;;;;;;5056568;28;20088;-73
2022/06/01 04:36:25;;;;;;;9.65;7.30;;;9.40;99.90;;;;;;5056952;28;20038;-74
2022/06/01 04:38:50;;;;;;;8.68;7.78;;;9.40;99.90;;;;;;5056955;28;20407;-73
2022/06/01 04:41:16;;;;;;;10.90;7.30;;;9.50;99.90;;;;;;5057005;28;20041;-73
2022/06/01 04:43:41;;;;;;;9.75;7.32;;;9.50;99.90;;;;;;5056682;28;20042;-72
2022/06/01 04:46:07;;;;;;;10.32;7.72;;;9.50;99.90;;;;;;5056864;28;20494;-73
2022/06/01 04:48:32;;;;;;;7.97;7.15;;;9.50;99.90;;;;;;5056372;28;20048;-74
2022/06/01 04:50:59;;;;;;;11.25;7.72;;;9.50;99.90;;;;;;5056538;28;20041;-72
2022/06/01 04:53:24;;;;;;;8.70;7.53;;;9.50;99.90;;;;;;5054875;28;20030;-72
2022/06/01 04:55:50;;;;;;;9.15;8.05;;;9.60;99.90;;;;;;5056648;28;20164;-72
2022/06/01 04:58:16;;;;;;;9.77;8.15;;;9.60;99.90;;;;;;5056576;28;20034;-72
2022/06/01 05:00:43;;;;;;;9.13;7.28;;;9.60;99.90;;;;;;5055642;28;20037;-72
2022/06/01 05:03:09;;;;;;;10.77;8.25;;;9.60;99.90;;;;;;5056093;28;20095;-72
2022/06/01 05:05:37;;;;;;;10.50;7.47;;;9.80;99.90;;;;;;5056565;28;20395;-72
2022/06/01 05:08:03;;;;;;;10.82;7.85;;;9.90;99.90;;;;;;5056448;28;20034;-72
2022/06/01 05:10:29;;;;;;;8.65;7.53;;;10.00;99.90;;;;;;5056403;28;20038;-72
2022/06/01 05:12:55;;;;;;;11.10;7.50;;;10.20;99.90;;;;;;5056307;28;20038;-72
2022/06/01 05:15:20;;;;;;;10.40;7.82;;;10.40;99.90;;;;;;5056144;28;20045;-72
2022/06/01 05:17:46;;;;;;;7.70;6.43;;;10.70;99.90;;;;;;5054802;28;20097;-72
2022/06/01 05:20:13;;;;;;;8.52;6.85;;;10.90;99.90;;;;;;5056066;28;20391;-72
2022/06/01 05:22:39;;;;;;;10.95;7.50;;;11.00;99.90;;;;;;5038930;28;20034;-72
2022/06/01 05:25:05;;;;;;;11.25;6.82;;;11.10;99.90;;;;;;5035877;28;20038;-72
2022/06/01 05:27:31;;;;;;;7.57;6.57;;;11.20;99.90;;;;;;5036086;28;20038;-72
2022/06/01 05:29:57;;;;;;;14.00;6.65;;;11.30;99.90;;;;;;5036989;28;20380;-73
2022/06/01 05:32:22;;;;;;;9.10;7.22;;;11.50;99.90;;;;;;5036771;28;20058;-76
2022/06/01 05:34:48;;;;;;;9.88;6.53;;;11.70;99.90;;;;;;5035971;28;20030;-73
2022/06/01 05:37:13;;;;;;;9.27;7.10;;;12.00;99.90;;;;;;5036113;28;20049;-72
2022/06/01 05:39:39;;;;;;;10.05;6.53;;;12.30;99.90;;;;;;5036127;28;20041;-73
2022/06/01 05:42:05;;;;;;;8.50;6.90;;;12.50;99.90;;;;;;5035606;28;20038;-73
2022/06/01 05:44:31;;;;;;;7.45;5.95;;;12.50;99.90;;;;;;5035448;28;20048;-73
2022/06/01 05:46:58;;;;;;;8.13;6.25;;;12.50;99.90;;;;;;5036047;28;20121;-73
2022/06/01 05:49:25;;;;;;;11.70;6.80;;;12.40;99.90;;;;;;5035575;28;20518;-73
2022/06/01 05:51:50;;;;;;;8.20;6.07;;;12.30;99.90;;;;;;5035366;28;20073;-73
2022/06/01 05:54:16;;;;;;;13.13;6.47;;;12.40;99.90;;;;;;5035416;28;20061;-73
2022/06/01 05:56:42;;;;;;;9.80;6.20;;;12.50;99.90;;;;;;5035835;28;20038;-73
2022/06/01 05:59:08;;;;;;;7.93;6.20;;;12.60;99.90;;;;;;5033977;28;20026;-73
2022/06/01 06:01:33;;;;;;;7.05;5.88;;;12.60;99.90;;;;;;5032945;28;20037;-74
2022/06/01 06:03:59;;;;;;;10.07;5.30;;;12.70;99.90;;;;;;5033564;28;20428;-73
2022/06/01 06:06:25;;;;;;;8.07;5.13;;;12.70;99.90;;;;;;5034401;28;20077;-73
2022/06/01 06:08:55;;;;;;;9.02;4.47;;;12.80;99.90;;;;;;5035677;28;20479;-74
2022/06/01 06:11:26;;;;;;;9.00;4.70;;;12.90;99.90;;;;;;5035333;28;20096;-75
2022/06/01 06:13:52;;;;;;;6.15;4.72;;;13.10;99.90;;;;;;5035595;28;20374;-73
2022/06/01 06:16:18;;;;;;;5.40;4.00;;;13.40;99.90;;;;;;5035475;28;20447;-74
2022/06/01 06:18:44;;;;;;;3.70;3.10;;;13.60;99.90;;;;;;5035531;28;20077;-73
2022/06/01 06:21:10;;;;;;;4.40;3.42;;;14.10;99.90;;;;;;5035055;28;20038;-73
2022/06/01 06:23:35;;;;;;;4.82;3.03;;;14.50;99.90;;;;;;5033482;28;20062;-74
2022/06/01 06:26:01;;;;;;;5.07;3.08;;;14.80;99.90;;;;;;5045940;28;20042;-76
2022/06/01 06:28:27;;;;;;;4.50;2.70;;;15.10;99.90;;;;;;5054691;28;20029;-73
2022/06/01 06:30:53;;;;;;;3.47;2.80;;;15.30;99.90;;;;;;5054896;28;20040;-73
2022/06/01 06:33:19;;;;;;;3.20;2.78;;;15.60;99.90;;;;;;5055054;28;20085;-73
2022/06/01 06:35:45;;;;;;;4.28;2.92;;;15.80;99.90;;;;;;5053996;28;20676;-74
2022/06/01 06:38:11;;;;;;;4.40;3.15;;;16.00;99.90;;;;;;5054055;28;20087;-74
2022/06/01 06:40:37;;;;;;;4.63;2.75;;;16.30;99.90;;;;;;5054743;28;20160;-73
2022/06/01 06:43:04;;;;;;;4.55;2.80;;;16.60;99.90;;;;;;5054579;28;20033;-73
2022/06/01 06:45:29;;;;;;;3.85;2.72;;;16.90;99.90;;;;;;5055096;28;20541;-74
2022/06/01 06:47:55;;;;;;;5.68;2.50;;;17.20;99.90;;;;;;5055110;28;20048;-73
2022/06/01 06:50:22;;;;;;;4.63;2.40;;;17.20;99.90;;;;;;5054774;28;20025;-73
2022/06/01 06:52:47;;;;;;;4.32;2.70;;;17.30;99.90;;;;;;5054794;28;20540;-73
2022/06/01 06:55:14;;;;;;;3.15;2.00;;;17.50;99.90;;;;;;5054440;28;20100;-73
2022/06/01 06:57:40;;;;;;;4.05;2.40;;;17.70;99.90;;;;;;5054757;28;20038;-73
2022/06/01 07:00:08;;;;;;;7.47;2.47;;;17.80;98.60;;;;;;5053276;28;20026;-73
2022/06/01 07:02:34;;;;;;;3.70;2.38;;;17.60;99.70;;;;;;5054256;28;20108;-73
2022/06/01 07:04:59;;;;;;;3.63;2.33;;;17.90;98.30;;;;;;5054447;28;20041;-74
2022/06/01 07:07:25;;;;;;;3.45;2.25;;;18.30;96.40;;;;;;5054947;28;20041;-73
2022/06/01 07:09:50;;;;;;;4.50;2.63;;;18.50;95.40;;;;;;5054599;28;20040;-74
2022/06/01 07:12:16;;;;;;;2.35;2.13;;;18.70;96.10;;;;;;5054401;28;20034;-74
2022/06/01 07:14:41;;;;;;;3.88;2.40;;;18.70;96.20;;;;;;5054193;28;20384;-74
2022/06/01 07:17:07;;;;;;;3.40;2.40;;;18.90;97.10;;;;;;5054387;28;20487;-74
2022/06/01 07:19:33;;;;;;;4.45;2.15;;;19.00;94.80;;;;;;5054705;28;20030;-74
2022/06/01 07:21:59;;;;;;;4.78;2.17;;;19.30;94.00;;;;;;5054212;28;20029;-74
2022/06/01 07:24:24;;;;;;;4.15;2.13;;;19.40;92.80;;;;;;5054109;28;20037;-74
2022/06/01 07:26:50;;;;;;;4.68;2.30;;;19.60;93.10;;;;;;5052975;28;20124;-74
2022/06/01 07:29:21;;;;;;;3.55;2.10;;;19.40;92.70;;;;;;5054379;28;20065;-74
2022/06/01 07:31:48;;;;;;;4.30;2.38;;;19.30;92.40;;;;;;5054400;28;20606;-74
2022/06/01 07:34:14;;;;;;;4.05;2.47;;;19.30;93.70;;;;;;5053874;28;20034;-74
2022/06/01 07:36:40;;;;;;;3.55;2.10;;;19.40;92.60;;;;;;5054439;28;20041;-74
2022/06/01 07:44:49;;;;;;;6.85;2.58;;;20.20;91.90;;;;;;5054163;28;20510;-74
2022/06/01 07:47:15;;;;;;;5.45;2.95;;;20.30;90.40;;;;;;5054153;28;20121;-74
2022/06/01 07:49:41;;;;;;;4.35;2.38;;;20.10;91.60;;;;;;5053914;28;20036;-74
2022/06/01 07:52:12;;;;;;;4.20;2.60;;;19.60;90.80;;;;;;5054177;28;20040;-74
2022/06/01 07:54:42;;;;;;;3.15;2.60;;;19.50;92.00;;;;;;5053887;28;20402;-74
2022/06/01 07:57:08;;;;;;;3.92;2.60;;;19.50;91.20;;;;;;5051546;28;20100;-74
2022/06/01 07:59:34;;;;;;;3.85;2.60;;;19.50;91.30;;;;;;5053684;28;20026;-74
2022/06/01 08:02:00;;;;;;;8.00;2.95;;;19.70;90.70;;;;;;5054735;28;20037;-73
2022/06/01 08:04:25;;;;;;;8.65;3.30;;;19.80;90.30;;;;;;5050883;28;20045;-74
2022/06/01 08:06:51;;;;;;;8.43;2.92;;;19.80;91.00;;;;;;5053823;28;20429;-73
2022/06/01 08:09:17;;;;;;;4.20;2.67;;;19.90;90.60;;;;;;5053979;28;20026;-73
2022/06/01 08:14:26;;;;;;;5.50;2.95;;;20.40;87.90;;;;;;5053790;28;20033;-73
2022/06/01 08:16:52;;;;;;;5.00;2.58;;;20.60;87.20;;;;;;5053542;28;20411;-73
2022/06/01 08:19:19;;;;;;;5.70;3.10;;;20.60;90.20;;;;;;5053789;28;20026;-73
2022/06/01 08:21:45;;;;;;;6.22;2.95;;;20.50;87.50;;;;;;5053626;28;20029;-74
2022/06/01 08:24:12;;;;;;;3.25;2.83;;;20.60;87.30;;;;;;5054363;28;20033;-71
2022/06/01 08:26:37;;;;;;;5.90;3.20;;;20.60;87.20;;;;;;5056948;28;20525;-72
2022/06/01 08:29:03;;;;;;;4.80;2.60;;;20.80;88.20;;;;;;5056764;28;20140;-72
2022/06/01 08:31:30;;;;;;;6.00;2.95;;;20.90;87.40;;;;;;5055424;28;20111;-77
2022/06/01 08:33:57;;;;;;;6.30;3.00;;;21.10;86.40;;;;;;5056765;28;20034;-74
2022/06/01 08:36:23;;;;;;;6.28;3.05;;;21.20;85.80;;;;;;5056875;28;20043;-74
2022/06/01 08:38:49;;;;;;;4.65;2.85;;;21.40;85.00;;;;;;5056965;28;20029;-73
2022/06/01 08:41:17;;;;;;;5.50;2.85;;;21.50;84.40;;;;;;5056562;28;20394;-73
2022/06/01 08:43:50;;;;;;;2.78;2.58;;;21.70;84.30;;;;;;5056336;28;20112;-73
2022/06/01 08:46:17;;;;;;;7.75;2.90;;;21.70;83.60;;;;;;5056889;28;20025;-74
2022/06/01 08:49:09;;;;;;;5.32;3.00;;;21.70;82.90;;;;;;5056767;28;20107;-74
2022/06/01 08:51:35;;;;;;;7.32;2.97;;;21.90;84.10;;;;;;5055050;28;20045;-75
2022/06/01 08:54:01;;;;;;;3.55;2.55;;;21.90;84.50;;;;;;5056465;28;20046;-76
2022/06/01 08:56:41;;;;;;;3.63;2.70;;;21.90;82.10;;;;;;5056423;28;20029;-73
2022/06/01 08:59:37;;;;;;;4.82;2.45;;;22.00;82.90;;;;;;5056732;28;20048;-73
2022/06/01 09:02:20;;;;;;;9.27;2.78;;;22.40;82.20;;;;;;5056134;28;20037;-72
2022/06/01 09:05:20;;;;;;;3.00;2.50;;;22.60;79.70;;;;;;5056540;28;20037;-73
2022/06/01 09:07:53;;;;;;;3.60;2.45;;;22.70;80.20;;;;;;5056458;28;20026;-73
2022/06/01 09:10:54;;;;;;;4.63;2.80;;;22.80;78.50;;;;;;5056349;28;20732;-74
2022/06/01 09:13:24;;;;;;;3.55;2.40;;;22.60;79.60;;;;;;5056305;28;20025;-75
2022/06/01 09:15:59;;;;;;;5.70;2.80;;;22.80;79.40;;;;;;5056387;28;20825;-72
2022/06/01 09:18:29;;;;;;;11.43;3.20;;;23.10;77.50;;;;;;5056791;28;20492;-76
2022/06/01 09:23:42;;;;;;;9.93;2.65;;;22.80;79.20;;;;;;5055111;28;20037;-72
2022/06/01 09:26:07;;;;;;;4.82;2.70;;;23.10;80.20;;;;;;5046025;28;20029;-72
2022/06/01 09:28:39;;;;;;;5.47;2.50;;;22.90;78.00;;;;;;5047410;28;20458;-72
2022/06/01 09:31:30;;;;;;;3.88;2.58;;;23.30;77.70;;;;;;5042932;28;20026;-71
2022/06/01 09:34:19;;;;;;;3.53;2.60;;;23.30;74.70;;;;;;5045101;28;20045;-72
2022/06/01 09:37:07;;;;;;;3.33;2.83;;;23.30;76.70;;;;;;5044022;28;20100;-72
2022/06/01 09:39:33;;;;;;;5.07;2.70;;;23.40;76.30;;;;;;5045081;28;20028;-72
2022/06/01 09:42:25;;;;;;;5.13;2.67;;;23.20;75.80;;;;;;5042057;28;20030;-72
2022/06/01 09:44:52;;;;;;;3.33;2.42;;;23.20;77.20;;;;;;5044972;28;20037;-72
2022/06/01 09:47:28;;;;;;;4.45;2.60;;;23.20;75.30;;;;;;5047436;28;20076;-72
2022/06/01 09:49:57;;;;;;;5.80;2.50;;;22.80;76.50;;;;;;5035617;28;20026;-72
2022/06/01 09:52:41;;;;;;;3.38;1.95;;;22.50;76.20;;;;;;5047940;28;20033;-73
2022/06/01 09:55:15;;;;;;;3.08;1.90;;;23.00;72.40;;;;;;5052801;28;20037;-73
2022/06/01 09:57:42;;;;;;;4.18;2.00;;;23.40;71.10;;;;;;5047165;28;20045;-73
2022/06/01 10:06:27;;;;;;;4.60;2.00;;;24.50;67.00;;;;;;5063761;28;20041;-73
2022/06/01 10:09:12;;;;;;;3.10;1.98;;;24.90;66.90;;;;;;5059608;28;20529;-75
2022/06/01 10:11:42;;;;;;;3.85;1.80;;;25.10;65.20;;;;;;5057550;28;20044;-73
2022/06/01 10:14:21;;;;;;;2.72;1.70;;;24.70;63.80;;;;;;5053333;28;20478;-73
2022/06/01 10:17:06;;;;;;;4.38;1.90;;;24.90;67.20;;;;;;5042342;28;20533;-73
2022/06/01 10:19:37;;;;;;;4.35;1.90;;;25.10;63.50;;;;;;5042383;28;20037;-78
2022/06/01 10:22:09;;;;;;;4.68;1.70;;;25.00;61.50;;;;;;5064148;28;20048;-73
2022/06/01 10:24:53;;;;;;;2.92;1.63;;;25.00;61.70;;;;;;5058674;28;20475;-72
2022/06/01 10:27:25;;;;;;;6.30;2.40;;;24.80;58.90;;;;;;5039402;28;20041;-73
2022/06/01 10:30:12;;;;;;;2.88;1.95;;;24.00;61.70;;;;;;5044801;28;20083;-72
2022/06/01 10:32:47;;;;;;;4.60;2.05;;;23.50;62.10;;;;;;5042790;28;20158;-73
2022/06/01 10:35:25;;;;;;;3.35;1.70;;;22.90;65.50;;;;;;5070471;28;20072;-72
2022/06/01 10:37:59;;;;;;;4.10;1.80;;;23.20;61.70;;;;;;5053995;28;20049;-73
2022/06/01 10:40:43;;;;;;;2.35;1.73;;;23.80;64.10;;;;;;5057316;28;20069;-72
2022/06/01 10:43:21;;;;;;;3.47;1.70;;;24.00;61.80;;;;;;5065263;28;20089;-72
2022/06/01 10:46:00;;;;;;;3.88;1.77;;;24.00;61.70;;;;;;5073400;28;20037;-72
2022/06/01 10:48:35;;;;;;;5.55;1.30;;;24.30;59.60;;;;;;5060245;28;20113;-72
2022/06/01 10:51:21;;;;;;;5.13;1.40;;;24.40;57.60;;;;;;5070549;28;20047;-74
2022/06/01 10:54:26;;;;;;;3.22;1.42;;;24.80;57.40;;;;;;5057180;28;20037;-72
2022/06/01 10:56:52;;;;;;;3.38;1.20;;;24.40;58.00;;;;;;5061923;28;20049;-72
2022/06/01 10:59:18;;;;;;;3.90;1.40;;;24.30;58.00;;;;;;5056714;28;20379;-72
2022/06/01 11:02:10;;;;;;;2.80;1.60;;;24.40;61.50;;;;;;5060710;28;20041;-73
2022/06/01 11:05:14;;;;;;;3.13;1.42;;;24.90;56.40;;;;;;5060144;28;20503;-73
2022/06/01 11:07:49;;;;;;;3.47;1.40;;;25.30;58.00;;;;;;5053240;28;20141;-73
2022/06/01 11:10:29;;;;;;;5.63;1.70;;;25.40;56.70;;;;;;5053814;28;20087;-72
2022/06/01 11:13:17;;;;;;;5.28;1.95;;;25.30;56.30;;;;;;5064094;28;20514;-72
2022/06/01 11:15:48;;;;;;;2.20;1.40;;;24.70;57.00;;;;;;5066595;28;20069;-73
2022/06/01 11:18:32;;;;;;;3.47;1.63;;;24.90;57.20;;;;;;5054671;28;20049;-73
2022/06/01 11:21:11;;;;;;;3.40;1.23;;;24.90;55.30;;;;;;5052334;28;20042;-71
2022/06/01 11:24:02;;;;;;;6.13;1.50;;;24.80;55.90;;;;;;5067220;28;20041;-73
2022/06/01 11:26:55;;;;;;;2.88;1.60;;;24.70;57.10;;;;;;5048013;28;20034;-72
2022/06/01 11:29:48;;;;;;;3.03;1.50;;;25.00;56.30;;;;;;5052768;28;20406;-72
2022/06/01 11:32:19;;;;;;;4.25;1.50;;;25.30;56.00;;;;;;5052041;28;20069;-72
2022/06/01 11:34:57;;;;;;;3.67;1.40;;;26.00;55.50;;;;;;5064485;28;20486;-72
2022/06/01 11:37:33;;;;;;;2.17;1.20;;;26.50;53.50;;;;;;5054792;28;20056;-74
2022/06/01 11:40:26;;;;;;;3.10;1.40;;;26.60;52.50;;;;;;5067564;28;20025;-71
2022/06/01 11:42:57;;;;;;;5.00;1.38;;;26.90;51.50;;;;;;5056538;28;20554;-72
2022/06/01 11:45:38;;;;;;;1.48;1.30;;;26.90;52.10;;;;;;5049565;28;20030;-72
2022/06/01 11:48:08;;;;;;;4.40;1.40;;;26.10;52.00;;;;;;5049187;28;20562;-71
2022/06/01 11:51:14;;;;;;;2.38;1.38;;;25.40;53.90;;;;;;5052904;28;20399;-72
2022/06/01 11:53:55;;;;;;;4.93;1.77;;;25.90;54.00;;;;;;5051624;28;20053;-73
2022/06/01 11:56:30;;;;;;;2.70;1.30;;;26.30;52.40;;;;;;5053589;28;20033;-73
2022/06/01 11:59:28;;;;;;;6.03;2.03;;;26.70;54.50;;;;;;5054111;28;20075;-73
2022/06/01 12:02:40;;;;;;;2.15;1.50;;;27.30;52.50;;;;;;5054250;28;20073;-74
2022/06/01 12:05:27;;;;;;;4.80;1.75;;;27.00;51.10;;;;;;5046439;28;20491;-73
2022/06/01 12:08:16;;;;;;;3.13;1.25;;;27.10;54.20;;;;;;5052949;28;20461;-74
2022/06/01 12:10:54;;;;;;;6.00;1.90;;;26.20;52.70;;;;;;5049587;28;20737;-73
2022/06/01 12:13:28;;;;;;;2.35;1.50;;;26.30;53.20;;;;;;5035739;28;20037;-75
2022/06/01 12:16:17;;;;;;;3.50;1.52;;;26.80;51.30;;;;;;5049112;28;20033;-72
2022/06/01 12:19:19;;;;;;;3.33;1.60;;;26.80;49.40;;;;;;5057185;28;20449;-72
2022/06/01 12:21:44;;;;;;;3.03;1.77;;;26.60;51.10;;;;;;5064369;28;20045;-71
2022/06/01 12:30:00;;;;;;;1.75;1.45;;;26.30;52.90;;;;;;5055002;28;20499;-71
2022/06/01 12:32:28;;;;;;;3.88;1.40;;;27.10;52.50;;;;;;5056043;28;20036;-72
2022/06/01 12:35:07;;;;;;;4.90;1.48;;;27.30;52.30;;;;;;5055452;28;20522;-72
2022/06/01 12:37:50;;;;;;;3.13;1.35;;;27.30;52.00;;;;;;5056233;28;20048;-72
2022/06/01 12:40:20;;;;;;;2.05;1.20;;;26.50;52.20;;;;;;5055985;28;20038;-72
2022/06/01 12:42:56;;;;;;;4.30;1.50;;;26.50;51.40;;;;;;5055861;28;20630;-71
2022/06/01 12:45:37;;;;;;;4.63;1.67;;;26.70;53.40;;;;;;5036051;28;20042;-72
2022/06/01 12:48:19;;;;;;;2.50;1.55;;;26.90;50.10;;;;;;5053570;28;20056;-72
2022/06/01 12:51:06;;;;;;;2.63;1.15;;;27.10;50.90;;;;;;5055469;28;20037;-72
2022/06/01 12:53:47;;;;;;;4.95;1.90;;;27.00;49.90;;;;;;5055136;28;20029;-72
2022/06/01 12:56:16;;;;;;;4.60;1.60;;;26.30;52.10;;;;;;5055485;28;20040;-72
2022/06/01 12:58:43;;;;;;;2.30;1.30;;;26.10;52.90;;;;;;5055718;28;20519;-71
2022/06/01 13:01:10;;;;;;;10.20;2.13;;;26.20;53.10;;;;;;5047132;28;20786;-71
2022/06/01 13:03:42;;;;;;;6.63;1.80;;;26.70;50.70;;;;;;5034245;28;20137;-71
2022/06/01 13:06:11;;;;;;;3.10;1.50;;;27.20;50.30;;;;;;5036503;28;20488;-72
2022/06/01 13:08:40;;;;;;;2.67;1.30;;;27.50;50.70;;;;;;5055813;28;20045;-72
2022/06/01 13:11:22;;;;;;;4.32;1.65;;;27.70;50.60;;;;;;5054885;28;20124;-72
2022/06/01 13:13:47;;;;;;;3.33;1.38;;;28.00;48.90;;;;;;5055644;28;20041;-72
2022/06/01 13:16:14;;;;;;;3.65;1.33;;;27.70;47.70;;;;;;5053674;28;20060;-71
2022/06/01 13:18:45;;;;;;;3.38;1.38;;;28.10;49.40;;;;;;5055280;28;20517;-72
2022/06/01 13:21:26;;;;;;;5.82;1.30;;;28.60;47.70;;;;;;5055515;28;20141;-73
2022/06/01 13:23:59;;;;;;;2.67;1.52;;;29.10;46.10;;;;;;5055456;28;20491;-72
2022/06/01 13:26:42;;;;;;;1.83;1.23;;;28.90;46.00;;;;;;5054743;28;20092;-73
2022/06/01 13:29:21;;;;;;;6.15;1.63;;;28.80;48.00;;;;;;5051758;28;20494;-74
2022/06/01 13:31:56;;;;;;;4.35;1.40;;;29.90;46.30;;;;;;5055060;28;20116;-73
2022/06/01 13:34:50;;;;;;;2.35;1.30;;;29.60;44.60;;;;;;5055080;28;20037;-73
2022/06/01 13:37:27;;;;;;;3.30;1.20;;;29.10;44.70;;;;;;5054866;28;20053;-73
2022/06/01 13:39:58;;;;;;;3.88;1.10;;;28.90;43.60;;;;;;5055381;28;20026;-73
2022/06/01 13:42:34;;;;;;;3.00;1.50;;;28.40;47.70;;;;;;5054772;28;20373;-73
2022/06/01 13:45:16;;;;;;;4.88;1.17;;;29.10;45.20;;;;;;5055296;28;20038;-73
2022/06/01 13:47:53;;;;;;;4.13;1.60;;;30.40;42.20;;;;;;5054797;28;20138;-73
2022/06/01 13:50:31;;;;;;;1.95;1.20;;;29.80;42.20;;;;;;5055097;28;20032;-74
2022/06/01 13:53:31;;;;;;;3.35;1.40;;;30.80;43.10;;;;;;5054635;28;20052;-74
2022/06/01 13:56:20;;;;;;;2.03;1.20;;;32.00;40.10;;;;;;5051859;28;20041;-74
2022/06/01 13:58:58;;;;;;;3.58;1.20;;;32.80;38.60;;;;;;5044306;28;20045;-74
2022/06/01 14:01:53;;;;;;;6.35;1.27;;;33.40;38.60;;;;;;5054688;28;20163;-73
2022/06/01 14:04:39;;;;;;;1.50;0.98;;;33.90;36.00;;;;;;5054836;28;20511;-73
2022/06/01 14:07:12;;;;;;;1.70;1.10;;;33.10;35.50;;;;;;5054769;28;20065;-74
2022/06/01 14:09:50;;;;;;;3.72;1.20;;;32.20;36.30;;;;;;5054332;28;20037;-74
2022/06/01 14:12:16;;;;;;;2.58;1.38;;;33.00;35.90;;;;;;5034488;28;20080;-74
2022/06/01 14:14:46;;;;;;;6.53;1.50;;;32.60;37.80;;;;;;5039855;28;20116;-74
2022/06/01 14:17:14;;;;;;;5.82;1.25;;;32.60;40.30;;;;;;5054222;28;20037;-74
2022/06/01 14:19:40;;;;;;;2.47;1.30;;;33.10;36.60;;;;;;5054355;28;20163;-74
2022/06/01 14:22:08;;;;;;;3.45;1.40;;;33.40;36.90;;;;;;5053596;28;20117;-74
2022/06/01 14:30:04;;;;;;;1.55;1.10;;;34.50;35.80;;;;;;5055418;28;20128;-74
2022/06/01 14:32:30;;;;;;;2.75;1.13;;;35.10;36.70;;;;;;5053292;28;20041;-74
2022/06/01 14:34:55;;;;;;;3.05;1.15;;;36.10;34.30;;;;;;5053619;28;20042;-75
2022/06/01 14:37:21;;;;;;;2.95;1.10;;;35.20;35.70;;;;;;5054210;28;20037;-74
2022/06/01 14:39:47;;;;;;;2.45;1.15;;;33.40;35.50;;;;;;5053473;28;20043;-74
2022/06/01 14:42:12;;;;;;;1.80;1.20;;;33.20;36.80;;;;;;5052344;28;20065;-75
2022/06/01 14:44:38;;;;;;;2.53;0.95;;;33.90;39.20;;;;;;5047663;28;20094;-74
2022/06/01 14:47:03;;;;;;;2.65;1.10;;;35.00;38.80;;;;;;5049363;28;20080;-74
2022/06/01 14:49:29;;;;;;;1.50;1.17;;;35.40;37.80;;;;;;5054379;28;20041;-74
2022/06/01 14:51:57;;;;;;;2.20;1.23;;;33.50;35.70;;;;;;5054049;28;20057;-74
2022/06/01 14:54:25;;;;;;;4.10;1.10;;;34.80;37.40;;;;;;5054579;28;20037;-73
2022/06/01 14:56:50;;;;;;;2.38;1.33;;;34.30;35.40;;;;;;5054251;28;20502;-73
2022/06/01 14:59:16;;;;;;;4.57;1.40;;;34.10;38.30;;;;;;5053901;28;20041;-73
2022/06/01 15:01:47;;;;;;;1.70;1.15;;;32.90;37.70;;;;;;5054079;28;20044;-74
2022/06/01 15:04:16;;;;;;;1.60;1.00;;;33.90;36.50;;;;;;5054508;28;20033;-74
2022/06/01 15:06:43;;;;;;;3.10;1.30;;;34.90;34.90;;;;;;5054468;28;20033;-74
2022/06/01 15:09:10;;;;;;;2.08;1.30;;;34.90;34.80;;;;;;5053973;28;20025;-74
2022/06/01 15:11:36;;;;;;;3.13;1.35;;;35.70;35.50;;;;;;5054319;28;20090;-74
2022/06/01 15:14:03;;;;;;;2.50;1.25;;;37.10;34.60;;;;;;5054706;28;20064;-74
2022/06/01 15:16:29;;;;;;;4.78;1.10;;;37.90;33.90;;;;;;5054983;28;20506;-73
2022/06/01 15:18:57;;;;;;;4.32;1.27;;;37.00;32.30;;;;;;5054634;28;20069;-73
2022/06/01 15:21:27;;;;;;;2.72;1.50;;;36.50;34.30;;;;;;5054465;28;20033;-73
2022/06/01 15:23:53;;;;;;;3.42;1.30;;;36.90;34.50;;;;;;5053818;28;20034;-72
2022/06/01 15:26:19;;;;;;;4.22;1.30;;;36.10;33.20;;;;;;5054858;28;20463;-73
2022/06/01 15:28:44;;;;;;;3.17;1.20;;;36.20;34.50;;;;;;5054551;28;20037;-74
2022/06/01 15:39:27;;;;;;;3.20;1.20;;;36.30;32.90;;;;;;5058164;28;20038;-73
2022/06/01 15:41:55;;;;;;;3.45;1.40;;;36.80;34.60;;;;;;5057802;28;20486;-74
2022/06/01 15:44:21;;;;;;;3.67;1.30;;;36.60;33.50;;;;;;5057557;28;20065;-72
2022/06/01 15:46:47;;;;;;;4.90;1.23;;;37.10;33.10;;;;;;5057383;28;20029;-73
2022/06/01 15:49:13;;;;;;;3.95;1.25;;;37.40;32.70;;;;;;5042413;28;20045;-72
2022/06/01 15:51:40;;;;;;;3.15;1.20;;;37.40;33.70;;;;;;5056776;28;20391;-75
2022/06/01 15:54:07;;;;;;;2.58;1.17;;;36.70;33.50;;;;;;5056667;28;20069;-74
2022/06/01 15:56:33;;;;;;;4.75;1.70;;;36.40;32.60;;;;;;5057222;28;20104;-76
2022/06/01 15:58:59;;;;;;;2.83;1.30;;;36.80;33.30;;;;;;5055466;28;20033;-75
2022/06/01 16:01:26;;;;;;;2.35;1.25;;;37.40;33.50;;;;;;5056731;28;20075;-77
2022/06/01 16:03:51;;;;;;;1.27;1.17;;;38.00;31.90;;;;;;5056419;28;20041;-74
2022/06/01 16:06:18;;;;;;;2.40;1.40;;;38.00;32.80;;;;;;5057553;28;20025;-77
2022/06/01 16:08:44;;;;;;;2.83;1.38;;;37.60;32.40;;;;;;5057102;28;20064;-74
2022/06/01 16:11:13;;;;;;;2.13;1.30;;;37.10;31.60;;;;;;5057024;28;20079;-76
2022/06/01 16:13:39;;;;;;;2.60;1.00;;;36.80;32.70;;;;;;5056976;28;20116;-76
2022/06/01 16:16:05;;;;;;;1.83;1.17;;;36.90;32.80;;;;;;5056996;28;20025;-74
2022/06/01 16:18:33;;;;;;;5.65;1.60;;;35.80;32.90;;;;;;5056292;28;20080;-76
2022/06/01 16:20:58;;;;;;;2.10;1.30;;;35.90;34.20;;;;;;5055665;28;20469;-74
2022/06/01 16:23:24;;;;;;;2.75;1.33;;;34.80;33.90;;;;;;5053665;28;20050;-73
2022/06/01 16:25:49;;;;;;;1.38;0.93;;;34.40;36.20;;;;;;5056363;28;20037;-73
2022/06/01 16:28:15;;;;;;;1.23;1.13;;;33.30;36.40;;;;;;5057194;28;20041;-73
2022/06/01 16:30:41;;;;;;;2.17;1.30;;;31.90;37.40;;;;;;5056989;28;20033;-73
2022/06/01 16:33:12;;;;;;;1.35;1.10;;;30.80;40.20;;;;;;5056754;28;20046;-72
2022/06/01 16:35:37;;;;;;;3.83;1.42;;;29.90;41.60;;;;;;5057206;28;20037;-73
2022/06/01 16:38:03;;;;;;;1.90;1.23;;;29.10;41.70;;;;;;5056728;28;20056;-72
2022/06/01 16:40:28;;;;;;;4.25;1.10;;;28.70;42.70;;;;;;5056888;28;20033;-73
2022/06/01 16:42:58;;;;;;;4.53;1.30;;;28.20;43.10;;;;;;5055337;28;20037;-72
2022/06/01 16:45:37;;;;;;;1.92;1.30;;;27.70;44.50;;;;;;5055727;28;20095;-75
2022/06/01 16:48:05;;;;;;;2.30;1.20;;;26.80;44.00;;;;;;5056854;28;20037;-72
2022/06/01 16:50:31;;;;;;;4.47;1.40;;;26.40;45.70;;;;;;5056503;28;20033;-72
2022/06/01 16:52:56;;;;;;;1.92;1.77;;;26.00;46.30;;;;;;5056149;28;20052;-71
2022/06/01 16:55:22;;;;;;;1.40;1.20;;;25.60;46.90;;;;;;5056520;28;20052;-72
2022/06/01 16:57:48;;;;;;;2.80;1.42;;;25.40;47.20;;;;;;5056760;28;20038;-72
2022/06/01 17:00:15;;;;;;;3.50;1.50;;;25.20;48.30;;;;;;5055052;28;20559;-72
2022/06/01 17:02:42;;;;;;;2.53;1.20;;;25.30;48.40;;;;;;5055974;28;20093;-72
2022/06/01 17:05:08;;;;;;;2.70;0.90;;;25.10;49.40;;;;;;5056294;28;20027;-71
2022/06/01 17:07:34;;;;;;;4.05;1.30;;;24.60;49.50;;;;;;5056284;28;20122;-72
2022/06/01 17:10:00;;;;;;;2.78;1.00;;;24.40;49.70;;;;;;5056385;28;20039;-72
2022/06/01 17:12:26;;;;;;;4.82;1.10;;;24.20;49.10;;;;;;5055722;28;20116;-72
2022/06/01 17:14:52;;;;;;;3.25;1.10;;;24.20;49.00;;;;;;5055852;28;20045;-72
2022/06/01 17:17:29;;;;;;;1.88;1.10;;;24.00;50.30;;;;;;5056945;28;20029;-71
2022/06/01 17:19:56;;;;;;;2.22;1.00;;;24.00;50.90;;;;;;5056204;28;20061;-73
2022/06/01 17:22:22;;;;;;;3.75;1.10;;;23.90;50.30;;;;;;5055437;28;20041;-76
2022/06/01 17:24:48;;;;;;;2.17;1.00;;;23.90;51.00;;;;;;5056125;28;20026;-71
2022/06/01 17:27:13;;;;;;;1.73;1.40;;;23.80;51.70;;;;;;5056071;28;20422;-70
2022/06/01 17:29:39;;;;;;;1.33;1.13;;;23.80;50.20;;;;;;5056106;28;20061;-71
2022/06/01 17:32:10;;;;;;;2.00;1.00;;;23.70;50.20;;;;;;5055658;28;20044;-70
2022/06/01 17:34:37;;;;;;;2.28;1.05;;;23.60;52.00;;;;;;5054257;28;20033;-71
2022/06/01 17:37:03;;;;;;;2.60;1.17;;;23.30;51.30;;;;;;5055448;28;20046;-71
2022/06/01 17:39:28;;;;;;;3.78;1.40;;;23.20;51.30;;;;;;5055542;28;20037;-71
2022/06/01 17:41:55;;;;;;;1.92;1.00;;;23.20;52.00;;;;;;5055741;28;20053;-71
2022/06/01 17:44:21;;;;;;;1.20;1.10;;;23.20;51.30;;;;;;5055718;28;20069;-71
2022/06/01 17:46:47;;;;;;;3.95;1.30;;;23.10;51.60;;;;;;5054811;28;20128;-72